Time;durP1;ratioP1;P1;durP2;ratioP2;P2;SDS_P1;SDS_P2;PMS_P1;PMS_P2;Temp;Humidity;BMP_temperature;BMP_pressure;BME280_temperature;BME280_humidity;BME280_pressure;Samples;Min_cycle;Max_cycle;Signal;HPM_P1;HPM_P2
2023/07/30 00:01:26;;;;;;;3.93;3.50;;;16.40;99.90;;;;;;6106710;23;20176;-74
2023/07/30 00:03:52;;;;;;;4.93;4.50;;;16.40;99.90;;;;;;6178147;23;20180;-77
2023/07/30 00:06:19;;;;;;;4.13;2.90;;;16.30;99.90;;;;;;6149579;23;20150;-77
2023/07/30 00:08:47;;;;;;;3.37;3.07;;;16.30;99.90;;;;;;6099974;23;20374;-75
2023/07/30 00:11:12;;;;;;;6.17;3.00;;;16.30;99.90;;;;;;6123784;23;20405;-75
2023/07/30 00:13:39;;;;;;;4.63;3.37;;;16.30;99.90;;;;;;6093663;23;20152;-75
2023/07/30 00:16:06;;;;;;;3.90;3.20;;;16.20;99.90;;;;;;6118738;23;20384;-76
2023/07/30 00:18:33;;;;;;;3.97;3.57;;;16.30;99.90;;;;;;6098090;23;20373;-76
2023/07/30 00:20:59;;;;;;;4.63;3.63;;;16.20;99.90;;;;;;6045722;23;20447;-75
2023/07/30 00:23:24;;;;;;;4.23;3.03;;;16.20;99.90;;;;;;6094671;23;20430;-76
2023/07/30 00:25:50;;;;;;;6.43;3.17;;;16.20;99.90;;;;;;6088834;23;20334;-75
2023/07/30 00:28:17;;;;;;;3.20;2.90;;;16.20;99.90;;;;;;6090372;23;20156;-76
2023/07/30 00:33:39;;;;;;;3.33;3.03;;;16.20;99.90;;;;;;6185668;23;20444;-75
2023/07/30 00:36:05;;;;;;;3.53;3.23;;;16.20;99.90;;;;;;6142609;23;20387;-75
2023/07/30 00:38:31;;;;;;;3.57;3.27;;;16.20;99.90;;;;;;6188600;23;20373;-76
2023/07/30 00:40:56;;;;;;;3.27;2.97;;;16.10;99.90;;;;;;6236674;23;20184;-76
2023/07/30 00:43:22;;;;;;;3.90;3.50;;;16.10;99.90;;;;;;6192089;23;20168;-74
2023/07/30 00:45:50;;;;;;;4.50;3.43;;;16.10;99.90;;;;;;6217399;23;20376;-76
2023/07/30 00:48:16;;;;;;;4.80;4.07;;;16.10;99.90;;;;;;6190966;23;20496;-75
2023/07/30 00:50:43;;;;;;;5.53;3.70;;;16.10;99.90;;;;;;6216670;23;20416;-74
2023/07/30 00:53:11;;;;;;;4.03;3.63;;;16.20;99.90;;;;;;6218180;23;20138;-77
2023/07/30 00:55:37;;;;;;;3.80;3.30;;;16.20;99.90;;;;;;6212574;23;20436;-75
2023/07/30 00:58:04;;;;;;;5.83;3.00;;;16.10;99.90;;;;;;6177709;23;20399;-75
2023/07/30 01:00:31;;;;;;;7.90;3.77;;;16.20;99.90;;;;;;6198776;23;20244;-76
2023/07/30 01:02:57;;;;;;;3.90;3.27;;;16.10;99.90;;;;;;6102996;23;20510;-74
2023/07/30 01:05:23;;;;;;;4.50;3.23;;;16.10;99.90;;;;;;6163983;23;20381;-75
2023/07/30 01:07:49;;;;;;;3.23;2.93;;;16.10;99.90;;;;;;6114641;23;20376;-76
2023/07/30 01:10:15;;;;;;;3.70;2.60;;;16.20;99.90;;;;;;6140752;23;20410;-76
2023/07/30 01:12:43;;;;;;;3.83;3.20;;;16.20;99.90;;;;;;6165634;23;20381;-73
2023/07/30 01:15:10;;;;;;;3.10;2.70;;;16.40;99.90;;;;;;6142670;23;20384;-73
2023/07/30 01:17:37;;;;;;;3.30;2.90;;;16.40;99.90;;;;;;6117092;23;20389;-76
2023/07/30 01:20:04;;;;;;;2.70;2.33;;;16.60;99.90;;;;;;6141640;23;20419;-76
2023/07/30 01:22:29;;;;;;;2.80;2.50;;;16.70;99.90;;;;;;6146750;23;20499;-74
2023/07/30 01:24:56;;;;;;;2.60;2.40;;;16.70;99.90;;;;;;6111869;23;20426;-74
2023/07/30 01:27:30;;;;;;;3.60;2.83;;;16.80;99.90;;;;;;6085113;23;20388;-73
2023/07/30 01:30:08;;;;;;;2.80;2.50;;;16.90;99.90;;;;;;6137416;23;20387;-72
2023/07/30 01:32:34;;;;;;;4.80;2.93;;;16.90;99.90;;;;;;6096503;23;20462;-76
2023/07/30 01:35:01;;;;;;;5.17;3.00;;;17.00;99.90;;;;;;6120249;23;20385;-74
2023/07/30 01:37:29;;;;;;;4.43;2.83;;;17.00;99.90;;;;;;6172290;23;20461;-73
2023/07/30 01:39:55;;;;;;;3.87;2.97;;;17.10;99.90;;;;;;6148202;23;20441;-74
2023/07/30 01:42:21;;;;;;;2.93;2.63;;;17.10;99.90;;;;;;6149275;23;20428;-73
2023/07/30 01:44:47;;;;;;;3.30;2.80;;;17.10;99.90;;;;;;6179739;23;20408;-74
2023/07/30 01:47:15;;;;;;;5.37;2.80;;;17.10;99.90;;;;;;6180114;23;20148;-74
2023/07/30 01:49:41;;;;;;;3.53;2.83;;;17.20;99.90;;;;;;6149922;23;20265;-74
2023/07/30 01:52:07;;;;;;;3.57;3.10;;;17.20;99.90;;;;;;6200197;23;20870;-74
2023/07/30 01:54:33;;;;;;;3.03;2.73;;;17.20;99.90;;;;;;6149708;23;20145;-73
2023/07/30 01:57:00;;;;;;;2.30;2.10;;;17.20;99.90;;;;;;6148890;23;20381;-74
2023/07/30 01:59:26;;;;;;;4.50;2.50;;;17.30;99.90;;;;;;6173511;23;20195;-75
2023/07/30 02:01:52;;;;;;;3.70;2.43;;;17.30;99.90;;;;;;6167717;23;20396;-76
2023/07/30 02:04:17;;;;;;;2.93;2.50;;;17.30;99.90;;;;;;6235867;23;20136;-73
2023/07/30 02:06:43;;;;;;;3.63;3.27;;;17.40;99.90;;;;;;6237089;23;20136;-74
2023/07/30 02:09:09;;;;;;;4.10;2.80;;;17.40;99.90;;;;;;6261344;23;20133;-74
2023/07/30 02:11:35;;;;;;;3.33;2.73;;;17.40;99.90;;;;;;6235068;23;20174;-73
2023/07/30 02:14:00;;;;;;;6.57;3.23;;;17.40;99.90;;;;;;6209965;23;20145;-74
2023/07/30 02:16:26;;;;;;;3.30;2.50;;;17.40;99.90;;;;;;6211371;23;20422;-73
2023/07/30 02:18:51;;;;;;;2.77;2.50;;;17.40;99.90;;;;;;6209488;23;20418;-75
2023/07/30 02:21:17;;;;;;;4.00;2.60;;;17.40;99.90;;;;;;6213732;23;20224;-75
2023/07/30 02:23:44;;;;;;;2.53;2.33;;;17.50;99.90;;;;;;6206494;23;20174;-73
2023/07/30 02:26:10;;;;;;;3.90;2.50;;;17.50;99.90;;;;;;6208139;23;20403;-74
2023/07/30 02:28:36;;;;;;;2.90;2.50;;;17.50;99.90;;;;;;6260164;23;20126;-73
2023/07/30 02:31:01;;;;;;;3.30;2.50;;;17.40;99.90;;;;;;6233834;23;20462;-75
2023/07/30 02:33:27;;;;;;;6.40;2.60;;;17.40;99.90;;;;;;6209711;23;20211;-73
2023/07/30 02:35:53;;;;;;;3.40;2.30;;;17.30;99.90;;;;;;6263637;23;20132;-76
2023/07/30 02:38:18;;;;;;;2.87;2.10;;;17.30;99.90;;;;;;6232718;23;20146;-73
2023/07/30 02:40:45;;;;;;;3.00;2.30;;;17.30;99.90;;;;;;6209180;23;20164;-75
2023/07/30 02:43:11;;;;;;;3.30;2.53;;;17.30;99.90;;;;;;6235561;23;20167;-75
2023/07/30 02:45:38;;;;;;;3.50;2.63;;;17.40;99.90;;;;;;6210086;23;20383;-73
2023/07/30 02:48:04;;;;;;;3.77;2.57;;;17.40;99.90;;;;;;6211487;23;20145;-76
2023/07/30 02:50:29;;;;;;;2.13;1.70;;;17.40;99.90;;;;;;6210819;23;20388;-73
2023/07/30 02:52:55;;;;;;;3.07;2.07;;;17.40;99.90;;;;;;6236065;23;20204;-72
2023/07/30 02:55:22;;;;;;;5.60;3.10;;;17.30;99.90;;;;;;6210850;23;20157;-73
2023/07/30 02:57:48;;;;;;;4.27;2.40;;;17.20;99.90;;;;;;6237153;23;20438;-71
2023/07/30 03:00:13;;;;;;;2.97;2.17;;;17.20;99.90;;;;;;6264931;23;20395;-73
2023/07/30 03:02:40;;;;;;;2.63;2.30;;;17.20;99.90;;;;;;6236747;23;20182;-73
2023/07/30 03:05:07;;;;;;;3.13;2.43;;;17.10;99.90;;;;;;6213061;23;20148;-74
2023/07/30 03:07:32;;;;;;;3.90;2.67;;;17.20;99.90;;;;;;6238261;23;20467;-72
2023/07/30 03:09:58;;;;;;;6.73;3.23;;;17.20;99.90;;;;;;6212737;23;20651;-75
2023/07/30 03:12:24;;;;;;;5.03;3.60;;;17.20;99.90;;;;;;6211737;23;20152;-73
2023/07/30 03:14:49;;;;;;;3.50;2.80;;;17.20;99.90;;;;;;6233804;23;20395;-73
2023/07/30 03:17:15;;;;;;;2.43;2.23;;;17.30;99.90;;;;;;6239010;23;20143;-74
2023/07/30 03:19:41;;;;;;;4.63;2.60;;;17.30;99.90;;;;;;6235430;23;20164;-73
2023/07/30 03:22:06;;;;;;;4.40;2.37;;;17.30;99.90;;;;;;6263000;23;20164;-72
2023/07/30 03:24:32;;;;;;;3.03;2.73;;;17.30;99.90;;;;;;6207788;23;20143;-73
2023/07/30 03:26:58;;;;;;;3.20;2.20;;;17.30;99.90;;;;;;6206533;23;20144;-74
2023/07/30 03:29:23;;;;;;;7.33;3.20;;;17.30;99.90;;;;;;6210150;23;20163;-73
2023/07/30 03:31:49;;;;;;;5.20;3.33;;;17.30;99.90;;;;;;6234571;23;20216;-76
2023/07/30 03:34:14;;;;;;;7.73;3.10;;;17.30;99.90;;;;;;6209340;23;20212;-74
2023/07/30 03:36:40;;;;;;;2.97;2.33;;;17.30;99.90;;;;;;6211087;23;20156;-74
2023/07/30 03:39:06;;;;;;;4.20;2.70;;;17.30;99.90;;;;;;6211171;23;20162;-73
2023/07/30 03:41:31;;;;;;;3.23;2.20;;;17.30;99.90;;;;;;6234116;23;20137;-73
2023/07/30 03:43:57;;;;;;;4.30;2.60;;;17.30;99.90;;;;;;6210748;23;20466;-73
2023/07/30 03:46:23;;;;;;;4.23;2.70;;;17.30;99.90;;;;;;6211231;23;20141;-72
2023/07/30 03:48:49;;;;;;;3.60;2.70;;;17.30;99.90;;;;;;6237517;23;20859;-73
2023/07/30 03:51:14;;;;;;;2.30;2.10;;;17.20;99.90;;;;;;6236848;23;20165;-72
2023/07/30 03:53:40;;;;;;;2.93;2.00;;;17.20;99.90;;;;;;6232273;23;20178;-71
2023/07/30 03:56:06;;;;;;;3.40;2.20;;;17.20;99.90;;;;;;6257642;23;20142;-73
2023/07/30 03:58:31;;;;;;;4.70;2.50;;;17.20;99.90;;;;;;6205861;23;20153;-73
2023/07/30 04:00:57;;;;;;;2.40;2.20;;;17.20;99.90;;;;;;6255871;23;20473;-74
2023/07/30 04:03:22;;;;;;;3.90;3.00;;;17.20;99.90;;;;;;6222644;23;20247;-73
2023/07/30 04:05:48;;;;;;;3.70;2.70;;;17.10;99.90;;;;;;6222188;23;20148;-72
2023/07/30 04:08:13;;;;;;;6.20;2.50;;;17.10;99.90;;;;;;6222423;23;20220;-74
2023/07/30 04:10:39;;;;;;;5.50;3.30;;;17.10;99.90;;;;;;6220786;23;20236;-73
2023/07/30 04:13:05;;;;;;;5.80;3.27;;;17.10;99.90;;;;;;6249520;23;20134;-74
2023/07/30 04:15:30;;;;;;;4.47;3.00;;;17.10;99.90;;;;;;6250344;23;20213;-75
2023/07/30 04:17:56;;;;;;;5.73;3.23;;;17.10;99.90;;;;;;6223211;23;20462;-74
2023/07/30 04:20:22;;;;;;;4.63;2.60;;;17.10;99.90;;;;;;6248486;23;20168;-73
2023/07/30 04:22:47;;;;;;;4.93;3.80;;;17.10;99.90;;;;;;6249991;23;20162;-73
2023/07/30 04:25:13;;;;;;;4.13;3.00;;;17.10;99.90;;;;;;6249240;23;20566;-73
2023/07/30 04:27:38;;;;;;;7.13;2.97;;;17.20;99.90;;;;;;6248729;23;20143;-72
2023/07/30 04:30:07;;;;;;;5.97;3.03;;;17.20;99.90;;;;;;6249396;23;20204;-72
2023/07/30 04:32:33;;;;;;;6.80;2.80;;;17.20;99.90;;;;;;6251154;23;20185;-72
2023/07/30 04:35:01;;;;;;;3.90;2.37;;;17.20;99.90;;;;;;6250315;23;20431;-74
2023/07/30 04:37:27;;;;;;;2.97;2.20;;;17.20;99.90;;;;;;6250762;23;20359;-72
2023/07/30 04:39:53;;;;;;;3.90;2.70;;;17.20;99.90;;;;;;6197038;23;20407;-73
2023/07/30 04:42:19;;;;;;;8.27;3.00;;;17.20;99.90;;;;;;6221604;23;20210;-73
2023/07/30 04:44:45;;;;;;;7.07;2.90;;;17.20;99.90;;;;;;6223236;23;20545;-74
2023/07/30 04:47:14;;;;;;;3.73;2.20;;;17.30;99.90;;;;;;6222993;23;20243;-74
2023/07/30 04:49:40;;;;;;;9.40;3.40;;;17.30;99.90;;;;;;6222871;23;20387;-73
2023/07/30 04:52:07;;;;;;;2.77;2.47;;;17.30;99.90;;;;;;6222484;23;20543;-73
2023/07/30 04:54:33;;;;;;;3.90;2.03;;;17.20;99.90;;;;;;6249628;23;20356;-71
2023/07/30 04:56:58;;;;;;;2.30;1.70;;;17.20;99.90;;;;;;6248565;23;20378;-73
2023/07/30 04:59:24;;;;;;;4.87;2.77;;;17.20;99.90;;;;;;6248741;23;20218;-74
2023/07/30 05:01:50;;;;;;;5.37;2.20;;;17.20;99.90;;;;;;6254961;23;20161;-72
2023/07/30 05:04:15;;;;;;;3.87;2.50;;;17.20;99.90;;;;;;6231076;23;20152;-73
2023/07/30 05:06:41;;;;;;;5.60;2.10;;;17.30;99.90;;;;;;6230519;23;20147;-74
2023/07/30 05:09:06;;;;;;;7.43;2.63;;;17.40;99.90;;;;;;6260199;23;20494;-72
2023/07/30 05:11:32;;;;;;;5.37;2.37;;;17.40;99.90;;;;;;6258413;23;20209;-73
2023/07/30 05:13:58;;;;;;;4.10;1.87;;;17.50;99.90;;;;;;6209360;23;20153;-73
2023/07/30 05:16:24;;;;;;;5.00;2.00;;;17.50;99.90;;;;;;6236063;23;20158;-74
2023/07/30 05:18:50;;;;;;;3.73;2.07;;;17.60;99.90;;;;;;6198009;23;20383;-73
2023/07/30 05:21:15;;;;;;;2.30;1.67;;;17.60;99.90;;;;;;6199057;23;20389;-73
2023/07/30 05:23:41;;;;;;;7.00;2.70;;;17.70;99.90;;;;;;6197701;23;20188;-73
2023/07/30 05:26:07;;;;;;;4.43;2.40;;;17.70;99.90;;;;;;6196010;23;20150;-73
2023/07/30 05:28:32;;;;;;;2.80;1.97;;;17.70;99.90;;;;;;6198822;23;20153;-73
2023/07/30 05:30:58;;;;;;;7.20;2.20;;;17.70;99.90;;;;;;6147940;23;20551;-72
2023/07/30 05:33:24;;;;;;;3.90;2.03;;;17.70;99.90;;;;;;6174517;23;20440;-74
2023/07/30 05:35:50;;;;;;;6.00;2.47;;;17.70;99.90;;;;;;6173711;23;20176;-72
2023/07/30 05:38:15;;;;;;;8.27;2.77;;;17.80;99.90;;;;;;6198971;23;20226;-73
2023/07/30 05:40:42;;;;;;;3.67;2.40;;;17.80;99.90;;;;;;6200228;23;20165;-74
2023/07/30 05:43:08;;;;;;;5.77;2.47;;;17.90;99.90;;;;;;6199898;23;20170;-75
2023/07/30 05:45:34;;;;;;;5.00;2.00;;;17.90;99.90;;;;;;6153896;23;20412;-73
2023/07/30 05:48:00;;;;;;;6.63;2.60;;;17.90;99.90;;;;;;6150135;23;20151;-73
2023/07/30 05:50:26;;;;;;;6.07;2.27;;;17.90;99.90;;;;;;6154842;23;20419;-73
2023/07/30 05:52:51;;;;;;;4.50;1.70;;;17.80;99.90;;;;;;6201461;23;20137;-72
2023/07/30 05:55:17;;;;;;;3.60;2.10;;;17.80;99.90;;;;;;6209845;23;20460;-73
2023/07/30 05:57:42;;;;;;;4.00;1.80;;;17.90;99.90;;;;;;6237483;23;20140;-75
2023/07/30 06:00:08;;;;;;;6.33;1.77;;;17.90;99.90;;;;;;6212344;23;20251;-74
2023/07/30 06:02:40;;;;;;;4.30;2.00;;;18.00;99.90;;;;;;6216065;23;20212;-74
2023/07/30 06:05:06;;;;;;;8.33;2.50;;;18.00;99.90;;;;;;6264069;23;20383;-72
2023/07/30 06:07:31;;;;;;;4.70;1.80;;;18.10;99.90;;;;;;6265502;23;20129;-76
2023/07/30 06:09:57;;;;;;;3.10;1.87;;;18.10;99.90;;;;;;6212565;23;20164;-75
2023/07/30 06:12:23;;;;;;;3.90;2.30;;;18.20;99.90;;;;;;6211149;23;20156;-77
2023/07/30 06:14:49;;;;;;;2.03;1.67;;;18.30;99.90;;;;;;6263976;23;20217;-74
2023/07/30 06:17:16;;;;;;;6.40;2.10;;;18.40;99.90;;;;;;6237300;23;20364;-72
2023/07/30 06:19:42;;;;;;;3.47;1.90;;;18.50;99.90;;;;;;6260788;23;20161;-76
2023/07/30 06:22:08;;;;;;;4.50;1.73;;;18.60;99.90;;;;;;6237198;23;20403;-76
2023/07/30 06:24:33;;;;;;;8.87;2.43;;;18.50;99.90;;;;;;6234620;23;20205;-74
2023/07/30 06:26:59;;;;;;;4.07;2.07;;;18.50;99.90;;;;;;6233131;23;20364;-75
2023/07/30 06:29:25;;;;;;;4.57;2.00;;;18.50;99.90;;;;;;6236658;23;20161;-74
2023/07/30 06:31:50;;;;;;;2.70;1.53;;;18.40;99.90;;;;;;6235294;23;20200;-73
2023/07/30 06:34:17;;;;;;;4.50;1.83;;;18.50;99.90;;;;;;6234035;23;20157;-74
2023/07/30 06:36:44;;;;;;;4.17;2.23;;;18.50;99.90;;;;;;6236008;23;20129;-75
2023/07/30 06:39:10;;;;;;;8.17;2.60;;;18.60;99.90;;;;;;6210988;23;20757;-73
2023/07/30 06:41:38;;;;;;;4.40;2.27;;;18.60;99.90;;;;;;6240095;22;20360;-74
2023/07/30 06:44:05;;;;;;;3.90;1.50;;;18.60;99.90;;;;;;6214676;23;20181;-73
2023/07/30 06:46:30;;;;;;;4.60;2.03;;;18.60;99.90;;;;;;6240272;23;20442;-76
2023/07/30 06:48:56;;;;;;;8.90;2.30;;;18.60;99.90;;;;;;6263046;23;20157;-77
2023/07/30 06:51:25;;;;;;;4.50;1.70;;;18.60;99.90;;;;;;6266104;23;20164;-76
2023/07/30 06:53:51;;;;;;;3.70;1.47;;;18.50;99.90;;;;;;6237629;23;20162;-74
2023/07/30 06:56:16;;;;;;;4.03;2.13;;;18.40;99.90;;;;;;6212792;23;20376;-74
2023/07/30 06:58:42;;;;;;;8.50;1.87;;;18.40;99.90;;;;;;6211690;23;20347;-73
2023/07/30 07:01:08;;;;;;;2.57;1.80;;;18.40;99.90;;;;;;6238398;23;20243;-73
2023/07/30 07:03:33;;;;;;;4.80;1.80;;;18.40;99.90;;;;;;6213679;23;20172;-73
2023/07/30 07:05:59;;;;;;;3.33;1.37;;;18.40;99.90;;;;;;6216664;23;20145;-72
2023/07/30 07:08:27;;;;;;;3.80;1.70;;;18.50;99.90;;;;;;6237601;23;20138;-76
2023/07/30 07:10:53;;;;;;;4.70;1.70;;;18.60;99.90;;;;;;6263405;23;20161;-74
2023/07/30 07:13:18;;;;;;;2.37;1.30;;;18.80;99.90;;;;;;6239975;23;20422;-73
2023/07/30 07:15:44;;;;;;;1.63;1.30;;;19.00;99.10;;;;;;6240044;23;20133;-75
2023/07/30 07:18:10;;;;;;;3.93;1.27;;;19.20;97.50;;;;;;6264316;23;20555;-73
2023/07/30 07:20:38;;;;;;;2.47;1.50;;;19.30;96.10;;;;;;6240586;23;20380;-77
2023/07/30 07:23:05;;;;;;;2.33;1.10;;;19.40;94.40;;;;;;6240938;23;20220;-76
2023/07/30 07:25:30;;;;;;;3.37;1.60;;;19.50;93.60;;;;;;6190569;23;20381;-75
2023/07/30 07:27:56;;;;;;;3.00;1.30;;;19.60;92.90;;;;;;6187855;23;20378;-78
2023/07/30 07:30:22;;;;;;;2.93;1.40;;;19.80;92.60;;;;;;6185419;23;20551;-74
2023/07/30 07:32:50;;;;;;;4.37;1.30;;;20.00;90.40;;;;;;6233940;23;20190;-75
2023/07/30 07:35:18;;;;;;;2.17;1.40;;;20.10;90.00;;;;;;6186608;23;20519;-72
2023/07/30 07:37:45;;;;;;;4.50;1.80;;;20.20;86.00;;;;;;6208099;23;20372;-75
2023/07/30 07:40:11;;;;;;;4.63;1.80;;;20.20;84.10;;;;;;6160836;23;20385;-74
2023/07/30 07:42:38;;;;;;;5.57;1.77;;;20.20;86.70;;;;;;6185507;23;20483;-76
2023/07/30 07:45:05;;;;;;;3.97;1.83;;;20.10;85.80;;;;;;6213403;23;20212;-74
2023/07/30 07:47:32;;;;;;;6.20;1.73;;;20.10;87.80;;;;;;6214133;23;20373;-78
2023/07/30 07:49:57;;;;;;;5.50;2.20;;;20.00;86.50;;;;;;6188385;23;20428;-75
2023/07/30 07:52:23;;;;;;;7.00;2.43;;;20.10;88.50;;;;;;6210111;23;20377;-77
2023/07/30 07:54:49;;;;;;;5.90;2.27;;;20.30;87.00;;;;;;6210179;23;20145;-76
2023/07/30 07:57:15;;;;;;;4.67;2.13;;;20.40;85.60;;;;;;6186775;23;20549;-77
2023/07/30 07:59:44;;;;;;;4.40;1.90;;;20.50;84.30;;;;;;6240648;23;20396;-75
2023/07/30 08:02:12;;;;;;;4.80;1.90;;;20.50;83.50;;;;;;6240986;23;20196;-73
2023/07/30 08:04:39;;;;;;;3.97;2.70;;;20.60;84.40;;;;;;6239510;23;20434;-77
2023/07/30 08:07:05;;;;;;;4.57;2.17;;;20.50;84.30;;;;;;6216866;23;20388;-75
2023/07/30 08:09:31;;;;;;;4.57;2.27;;;20.60;84.50;;;;;;6214556;23;20449;-73
2023/07/30 08:11:57;;;;;;;7.77;2.20;;;20.70;83.80;;;;;;6214112;23;20373;-74
2023/07/30 08:14:23;;;;;;;6.00;2.37;;;20.80;80.40;;;;;;6266824;23;20129;-76
2023/07/30 08:16:56;;;;;;;4.67;2.60;;;20.80;80.20;;;;;;6238856;23;20149;-75
2023/07/30 08:19:26;;;;;;;5.77;2.17;;;21.00;79.20;;;;;;6239064;23;20584;-74
2023/07/30 08:21:51;;;;;;;11.63;2.33;;;21.20;78.10;;;;;;6237883;23;20384;-74
2023/07/30 08:24:17;;;;;;;5.77;2.30;;;21.10;76.20;;;;;;6238816;23;20372;-75
2023/07/30 08:26:46;;;;;;;7.30;2.10;;;21.20;77.30;;;;;;6240273;23;20134;-72
2023/07/30 08:29:14;;;;;;;8.90;3.10;;;21.30;77.70;;;;;;6240346;23;20129;-77
2023/07/30 08:31:41;;;;;;;5.70;2.73;;;21.50;74.90;;;;;;6215345;23;20477;-76
2023/07/30 08:34:07;;;;;;;9.60;2.83;;;21.40;75.00;;;;;;6215045;23;20383;-75
2023/07/30 08:36:38;;;;;;;5.93;2.60;;;21.40;73.50;;;;;;6266320;23;20761;-75
2023/07/30 08:39:04;;;;;;;7.43;2.63;;;21.10;75.50;;;;;;6240482;23;20192;-74
2023/07/30 08:41:37;;;;;;;11.47;2.67;;;20.80;77.80;;;;;;6241236;23;20375;-72
2023/07/30 08:44:04;;;;;;;10.43;3.03;;;20.60;79.60;;;;;;6243937;23;20184;-78
2023/07/30 08:46:31;;;;;;;6.63;2.90;;;20.20;83.30;;;;;;6191568;23;20569;-76
2023/07/30 08:48:59;;;;;;;11.33;3.03;;;20.10;86.30;;;;;;6269330;23;20345;-75
2023/07/30 08:51:27;;;;;;;7.27;2.50;;;20.20;87.40;;;;;;6242581;23;20673;-76
2023/07/30 08:53:52;;;;;;;9.23;2.83;;;20.40;87.70;;;;;;6240969;23;20395;-76
2023/07/30 08:56:34;;;;;;;10.50;2.80;;;20.90;83.50;;;;;;6243148;23;20372;-74
2023/07/30 09:01:53;;;;;;;4.33;2.10;;;21.60;79.30;;;;;;6204034;23;20479;-75
2023/07/30 09:04:24;;;;;;;11.97;2.40;;;22.00;76.90;;;;;;6208474;23;20385;-75
2023/07/30 09:06:50;;;;;;;6.53;2.43;;;22.20;70.60;;;;;;6181336;23;20372;-77
2023/07/30 09:09:16;;;;;;;7.73;2.70;;;22.10;70.50;;;;;;6213370;23;20365;-77
2023/07/30 09:11:54;;;;;;;8.07;2.97;;;22.00;71.20;;;;;;6215513;23;20362;-77
2023/07/30 09:14:28;;;;;;;10.77;2.40;;;22.20;70.60;;;;;;6178335;23;20377;-75
2023/07/30 09:17:21;;;;;;;4.97;2.50;;;22.60;68.70;;;;;;6154047;23;20403;-77
2023/07/30 09:22:40;;;;;;;6.37;2.60;;;23.00;64.60;;;;;;6212062;23;20440;-75
2023/07/30 09:25:31;;;;;;;5.03;2.00;;;23.10;64.30;;;;;;6207659;23;20429;-77
2023/07/30 09:28:04;;;;;;;7.63;2.27;;;23.00;63.80;;;;;;6184774;23;20417;-78
2023/07/30 09:30:52;;;;;;;5.43;2.00;;;23.10;63.90;;;;;;6184125;23;20385;-75
2023/07/30 09:33:19;;;;;;;6.73;2.40;;;23.00;63.70;;;;;;6207264;23;20374;-75
2023/07/30 09:35:48;;;;;;;5.83;2.20;;;22.60;63.60;;;;;;6180379;23;20350;-77
2023/07/30 09:38:25;;;;;;;5.93;2.03;;;22.50;64.60;;;;;;6184252;23;20377;-75
2023/07/30 09:40:52;;;;;;;6.50;2.43;;;22.50;64.50;;;;;;6204692;23;20397;-78
2023/07/30 09:43:29;;;;;;;6.40;2.00;;;22.30;64.10;;;;;;6112662;23;20429;-77
2023/07/30 09:46:04;;;;;;;5.47;2.10;;;22.30;65.10;;;;;;6206715;23;20360;-76
2023/07/30 09:48:50;;;;;;;6.00;1.93;;;22.40;65.30;;;;;;6207527;23;20434;-77
2023/07/30 09:51:19;;;;;;;5.73;2.30;;;22.40;64.40;;;;;;6192414;23;20433;-76
2023/07/30 09:53:48;;;;;;;7.10;2.43;;;22.40;63.70;;;;;;6208070;23;20357;-77
2023/07/30 09:56:14;;;;;;;6.27;2.37;;;22.30;64.20;;;;;;6208421;23;20436;-78
2023/07/30 09:58:42;;;;;;;2.77;1.60;;;22.10;62.90;;;;;;6184552;23;20370;-77
2023/07/30 10:01:08;;;;;;;5.10;2.40;;;22.10;63.60;;;;;;6182599;23;20402;-76
2023/07/30 10:03:35;;;;;;;2.70;2.00;;;22.30;63.60;;;;;;6180143;23;20406;-75
2023/07/30 10:06:07;;;;;;;8.67;3.07;;;22.50;62.90;;;;;;6180000;23;20171;-74
2023/07/30 10:08:38;;;;;;;7.13;2.50;;;22.50;61.10;;;;;;6128487;23;20387;-75
2023/07/30 10:11:08;;;;;;;5.00;2.67;;;22.20;61.30;;;;;;6180718;23;20410;-77
2023/07/30 10:13:37;;;;;;;5.80;2.50;;;22.10;61.20;;;;;;6130614;23;20383;-77
2023/07/30 10:16:15;;;;;;;6.00;2.23;;;22.20;60.70;;;;;;6157209;23;20387;-76
2023/07/30 10:18:43;;;;;;;9.13;3.00;;;21.90;60.70;;;;;;6106483;23;20394;-74
2023/07/30 10:21:32;;;;;;;6.53;2.63;;;21.70;62.00;;;;;;6161485;23;20406;-76
2023/07/30 10:24:04;;;;;;;13.03;3.03;;;21.50;63.20;;;;;;6179740;23;20409;-72
2023/07/30 10:26:33;;;;;;;4.40;1.97;;;21.40;63.40;;;;;;6159374;23;20836;-76
2023/07/30 10:29:11;;;;;;;8.83;2.80;;;21.30;64.40;;;;;;6159109;23;20444;-78
2023/07/30 10:31:41;;;;;;;10.30;2.80;;;21.10;64.40;;;;;;6179071;23;20453;-76
2023/07/30 10:34:09;;;;;;;11.60;3.13;;;21.20;65.40;;;;;;6185015;23;20365;-74
2023/07/30 10:37:09;;;;;;;5.23;2.40;;;21.30;64.80;;;;;;6210207;23;20479;-75
2023/07/30 10:39:35;;;;;;;5.23;2.53;;;21.60;64.20;;;;;;6203842;23;20399;-75
2023/07/30 10:42:08;;;;;;;4.53;2.47;;;21.80;63.00;;;;;;6178395;23;20159;-76
2023/07/30 10:44:46;;;;;;;4.50;1.87;;;22.30;60.90;;;;;;6176026;23;20148;-75
2023/07/30 10:47:12;;;;;;;4.03;1.70;;;22.70;58.70;;;;;;6178072;23;20402;-76
2023/07/30 10:49:40;;;;;;;12.00;2.40;;;22.90;57.60;;;;;;6176167;23;20399;-75
2023/07/30 10:52:08;;;;;;;5.50;2.10;;;23.10;56.90;;;;;;6184422;23;20783;-75
2023/07/30 10:54:34;;;;;;;5.90;2.47;;;23.30;57.30;;;;;;6185385;23;20385;-76
2023/07/30 10:57:00;;;;;;;7.53;2.53;;;23.50;56.60;;;;;;6158418;23;20366;-74
2023/07/30 10:59:26;;;;;;;4.40;2.07;;;23.70;55.80;;;;;;6154501;23;20437;-74
2023/07/30 11:01:52;;;;;;;5.70;1.93;;;23.70;55.80;;;;;;6154173;23;20155;-75
2023/07/30 11:04:20;;;;;;;4.63;2.07;;;23.40;55.80;;;;;;6177514;23;20144;-74
2023/07/30 11:07:00;;;;;;;5.37;2.00;;;23.40;56.00;;;;;;6158125;23;20370;-76
2023/07/30 11:09:27;;;;;;;3.20;1.60;;;23.40;56.40;;;;;;6162290;23;20408;-75
2023/07/30 11:11:55;;;;;;;6.70;2.07;;;23.40;56.70;;;;;;6157328;23;20398;-77
2023/07/30 11:14:27;;;;;;;7.50;1.90;;;23.50;56.70;;;;;;6179267;23;20371;-74
2023/07/30 11:16:55;;;;;;;4.80;1.90;;;23.60;56.00;;;;;;6178602;23;20395;-77
2023/07/30 11:19:21;;;;;;;4.63;1.90;;;23.60;56.10;;;;;;6148518;23;20398;-75
2023/07/30 11:21:53;;;;;;;6.20;2.23;;;23.60;54.20;;;;;;6152454;23;20407;-76
2023/07/30 11:24:20;;;;;;;8.70;2.60;;;23.60;54.90;;;;;;6157283;23;20151;-76
2023/07/30 11:27:03;;;;;;;5.17;1.93;;;23.60;54.30;;;;;;6177372;23;20367;-75
2023/07/30 11:29:29;;;;;;;5.93;1.97;;;23.80;54.70;;;;;;6150049;23;20391;-76
2023/07/30 11:32:19;;;;;;;4.07;2.27;;;23.90;54.40;;;;;;6179301;23;20371;-74
2023/07/30 11:34:45;;;;;;;4.23;1.70;;;24.00;53.50;;;;;;6175772;23;20148;-76
2023/07/30 11:37:11;;;;;;;6.50;1.70;;;24.20;53.40;;;;;;6176408;23;20461;-75
2023/07/30 11:39:37;;;;;;;6.40;2.40;;;24.30;53.00;;;;;;6171075;23;20210;-73
2023/07/30 11:42:03;;;;;;;4.40;1.37;;;24.10;52.70;;;;;;6174386;23;20151;-75
2023/07/30 11:44:38;;;;;;;5.00;2.27;;;23.90;52.20;;;;;;6148985;23;20147;-74
2023/07/30 11:47:04;;;;;;;3.30;1.50;;;23.60;52.10;;;;;;6151458;23;20158;-75
2023/07/30 11:49:32;;;;;;;5.23;2.00;;;23.40;52.50;;;;;;6178444;23;20482;-78
2023/07/30 11:52:10;;;;;;;5.40;1.63;;;23.50;52.70;;;;;;6183690;23;20367;-77
2023/07/30 11:54:41;;;;;;;5.67;2.30;;;23.40;52.90;;;;;;6179367;23;20359;-76
2023/07/30 11:57:07;;;;;;;3.13;1.47;;;23.50;53.20;;;;;;6153677;23;20382;-74
2023/07/30 11:59:33;;;;;;;8.70;2.10;;;23.60;53.20;;;;;;6154848;23;20382;-75
2023/07/30 12:01:59;;;;;;;3.67;1.47;;;23.50;52.50;;;;;;6159078;23;20371;-76
2023/07/30 12:04:31;;;;;;;4.27;1.50;;;23.50;52.20;;;;;;6158433;23;20366;-75
2023/07/30 12:07:01;;;;;;;4.50;1.53;;;23.50;51.70;;;;;;6181425;23;20406;-76
2023/07/30 12:09:30;;;;;;;4.77;2.00;;;23.40;52.40;;;;;;6184375;23;20394;-76
2023/07/30 12:11:59;;;;;;;3.67;1.77;;;23.20;52.70;;;;;;6180109;23;20370;-77
2023/07/30 12:14:32;;;;;;;3.93;1.80;;;22.90;53.40;;;;;;6177496;23;20379;-75
2023/07/30 12:16:59;;;;;;;6.53;1.90;;;22.80;54.20;;;;;;6159561;23;20425;-76
2023/07/30 12:19:26;;;;;;;7.03;1.93;;;22.60;54.70;;;;;;6177155;23;20374;-76
2023/07/30 12:21:53;;;;;;;3.90;1.80;;;22.40;55.40;;;;;;6154682;23;20771;-75
2023/07/30 12:24:19;;;;;;;4.47;1.90;;;22.40;55.60;;;;;;6146812;23;20356;-74
2023/07/30 12:26:50;;;;;;;5.20;2.70;;;22.40;56.00;;;;;;6121802;23;20465;-75
2023/07/30 12:29:18;;;;;;;3.80;1.77;;;22.70;55.80;;;;;;6148924;23;20200;-77
2023/07/30 12:31:45;;;;;;;6.47;2.43;;;23.00;55.90;;;;;;6075616;23;20463;-78
2023/07/30 12:34:12;;;;;;;3.90;1.77;;;23.20;56.20;;;;;;6122892;23;20390;-75
2023/07/30 12:36:40;;;;;;;5.10;1.93;;;23.10;56.90;;;;;;6156787;23;20448;-76
2023/07/30 12:39:13;;;;;;;5.87;2.67;;;23.00;57.80;;;;;;6191586;23;20388;-74
2023/07/30 12:41:41;;;;;;;5.17;2.47;;;22.70;58.90;;;;;;6181781;23;20397;-76
2023/07/30 12:44:13;;;;;;;6.63;2.27;;;22.60;58.90;;;;;;6182870;23;20420;-76
2023/07/30 12:46:39;;;;;;;7.00;2.10;;;22.40;59.80;;;;;;6183960;23;20406;-76
2023/07/30 12:49:05;;;;;;;5.43;2.40;;;22.30;59.70;;;;;;6208121;23;20378;-77
2023/07/30 12:51:31;;;;;;;4.87;2.30;;;22.20;60.00;;;;;;6180925;23;20181;-76
2023/07/30 12:54:18;;;;;;;8.03;2.50;;;22.20;59.90;;;;;;6149264;23;20163;-76
2023/07/30 12:56:45;;;;;;;5.80;2.20;;;22.20;60.50;;;;;;6125178;23;20445;-77